sensor_id;sensor_type;location;lat;lon;timestamp;temperature;humidity
17621;DHT22;8929;51.008;6.804;2023-02-28T00:00:22;1.90;99.90
17621;DHT22;8929;51.008;6.804;2023-02-28T00:02:48;1.90;99.90
17621;DHT22;8929;51.008;6.804;2023-02-28T00:05:14;1.90;99.90
17621;DHT22;8929;51.008;6.804;2023-02-28T00:07:40;1.90;99.90
17621;DHT22;8929;51.008;6.804;2023-02-28T00:10:07;1.90;99.90
17621;DHT22;8929;51.008;6.804;2023-02-28T00:12:34;1.90;99.90
17621;DHT22;8929;51.008;6.804;2023-02-28T00:14:59;1.90;99.90
17621;DHT22;8929;51.008;6.804;2023-02-28T00:17:25;1.90;99.90
17621;DHT22;8929;51.008;6.804;2023-02-28T00:19:50;1.80;99.90
17621;DHT22;8929;51.008;6.804;2023-02-28T00:22:17;1.80;99.90
17621;DHT22;8929;51.008;6.804;2023-02-28T00:24:43;1.70;99.90
17621;DHT22;8929;51.008;6.804;2023-02-28T00:27:08;1.60;99.90
17621;DHT22;8929;51.008;6.804;2023-02-28T00:29:34;1.60;99.90
17621;DHT22;8929;51.008;6.804;2023-02-28T00:32:00;1.70;99.90
17621;DHT22;8929;51.008;6.804;2023-02-28T00:34:25;1.60;99.90
17621;DHT22;8929;51.008;6.804;2023-02-28T00:36:51;1.70;99.90
17621;DHT22;8929;51.008;6.804;2023-02-28T00:39:16;1.70;99.90
17621;DHT22;8929;51.008;6.804;2023-02-28T00:41:42;1.60;99.90
17621;DHT22;8929;51.008;6.804;2023-02-28T00:44:08;1.60;99.90
17621;DHT22;8929;51.008;6.804;2023-02-28T00:46:33;1.50;99.90
17621;DHT22;8929;51.008;6.804;2023-02-28T00:48:58;1.50;99.90
17621;DHT22;8929;51.008;6.804;2023-02-28T00:51:24;1.50;99.90
17621;DHT22;8929;51.008;6.804;2023-02-28T00:53:49;1.40;99.90
17621;DHT22;8929;51.008;6.804;2023-02-28T00:56:15;1.40;99.90
17621;DHT22;8929;51.008;6.804;2023-02-28T00:58:40;1.40;99.90
17621;DHT22;8929;51.008;6.804;2023-02-28T01:01:06;1.40;99.90
17621;DHT22;8929;51.008;6.804;2023-02-28T01:03:31;1.40;99.90
17621;DHT22;8929;51.008;6.804;2023-02-28T01:05:57;1.40;99.90
17621;DHT22;8929;51.008;6.804;2023-02-28T01:08:23;1.40;99.90
17621;DHT22;8929;51.008;6.804;2023-02-28T01:10:48;1.40;99.90
17621;DHT22;8929;51.008;6.804;2023-02-28T01:13:14;1.40;99.90
17621;DHT22;8929;51.008;6.804;2023-02-28T01:15:41;1.40;99.90
17621;DHT22;8929;51.008;6.804;2023-02-28T01:18:07;1.30;99.90
17621;DHT22;8929;51.008;6.804;2023-02-28T01:20:32;1.40;99.90
17621;DHT22;8929;51.008;6.804;2023-02-28T01:22:58;1.40;99.90
17621;DHT22;8929;51.008;6.804;2023-02-28T01:25:23;1.30;99.90
17621;DHT22;8929;51.008;6.804;2023-02-28T01:27:49;1.40;99.90
17621;DHT22;8929;51.008;6.804;2023-02-28T01:30:14;1.40;99.90
17621;DHT22;8929;51.008;6.804;2023-02-28T01:32:40;1.30;99.90
17621;DHT22;8929;51.008;6.804;2023-02-28T01:35:05;1.40;99.90
17621;DHT22;8929;51.008;6.804;2023-02-28T01:37:31;1.30;99.90
17621;DHT22;8929;51.008;6.804;2023-02-28T01:39:56;1.30;99.90
17621;DHT22;8929;51.008;6.804;2023-02-28T01:42:22;1.30;99.90
17621;DHT22;8929;51.008;6.804;2023-02-28T01:47:19;1.20;99.90
17621;DHT22;8929;51.008;6.804;2023-02-28T01:49:45;1.20;99.90
17621;DHT22;8929;51.008;6.804;2023-02-28T01:52:10;1.20;99.90
17621;DHT22;8929;51.008;6.804;2023-02-28T01:54:40;1.10;99.90
17621;DHT22;8929;51.008;6.804;2023-02-28T01:57:08;1.10;99.90
17621;DHT22;8929;51.008;6.804;2023-02-28T01:59:36;1.10;99.90
17621;DHT22;8929;51.008;6.804;2023-02-28T02:02:05;1.10;99.90
17621;DHT22;8929;51.008;6.804;2023-02-28T02:04:32;1.10;99.90
17621;DHT22;8929;51.008;6.804;2023-02-28T02:07:00;1.10;99.90
17621;DHT22;8929;51.008;6.804;2023-02-28T02:09:29;1.10;99.90
17621;DHT22;8929;51.008;6.804;2023-02-28T02:11:55;1.00;99.90
17621;DHT22;8929;51.008;6.804;2023-02-28T02:17:14;1.00;99.90
17621;DHT22;8929;51.008;6.804;2023-02-28T02:30:17;0.90;99.90
17621;DHT22;8929;51.008;6.804;2023-02-28T02:35:38;0.90;99.90
17621;DHT22;8929;51.008;6.804;2023-02-28T02:41:16;0.80;99.90
17621;DHT22;8929;51.008;6.804;2023-02-28T02:43:24;0.80;99.90
17621;DHT22;8929;51.008;6.804;2023-02-28T02:45:52;0.80;99.90
17621;DHT22;8929;51.008;6.804;2023-02-28T02:48:19;0.80;99.90
17621;DHT22;8929;51.008;6.804;2023-02-28T02:50:50;0.80;99.90
17621;DHT22;8929;51.008;6.804;2023-02-28T02:53:17;0.70;99.90
17621;DHT22;8929;51.008;6.804;2023-02-28T02:55:44;0.70;99.90
17621;DHT22;8929;51.008;6.804;2023-02-28T02:58:13;0.70;99.90
17621;DHT22;8929;51.008;6.804;2023-02-28T03:00:45;0.70;99.90
17621;DHT22;8929;51.008;6.804;2023-02-28T03:03:12;0.70;99.90
17621;DHT22;8929;51.008;6.804;2023-02-28T03:05:58;0.70;99.90
17621;DHT22;8929;51.008;6.804;2023-02-28T03:08:24;0.60;99.90
17621;DHT22;8929;51.008;6.804;2023-02-28T03:10:51;0.60;99.90
17621;DHT22;8929;51.008;6.804;2023-02-28T03:18:30;0.60;99.90
17621;DHT22;8929;51.008;6.804;2023-02-28T03:24:08;0.60;99.90
17621;DHT22;8929;51.008;6.804;2023-02-28T03:26:17;0.60;99.90
17621;DHT22;8929;51.008;6.804;2023-02-28T03:29:04;0.60;99.90
17621;DHT22;8929;51.008;6.804;2023-02-28T03:31:41;0.50;99.90
17621;DHT22;8929;51.008;6.804;2023-02-28T03:34:10;0.50;99.90
17621;DHT22;8929;51.008;6.804;2023-02-28T03:36:38;0.50;99.90
17621;DHT22;8929;51.008;6.804;2023-02-28T03:39:11;0.50;99.90
17621;DHT22;8929;51.008;6.804;2023-02-28T03:41:39;0.50;99.90
17621;DHT22;8929;51.008;6.804;2023-02-28T03:44:10;0.40;99.90
17621;DHT22;8929;51.008;6.804;2023-02-28T03:46:42;0.40;99.90
17621;DHT22;8929;51.008;6.804;2023-02-28T03:49:20;0.40;99.90
17621;DHT22;8929;51.008;6.804;2023-02-28T03:51:48;0.30;99.90
17621;DHT22;8929;51.008;6.804;2023-02-28T03:54:19;0.30;99.90
17621;DHT22;8929;51.008;6.804;2023-02-28T03:59:36;0.20;99.90
17621;DHT22;8929;51.008;6.804;2023-02-28T04:02:03;0.20;99.90
17621;DHT22;8929;51.008;6.804;2023-02-28T04:04:28;0.20;99.90
17621;DHT22;8929;51.008;6.804;2023-02-28T04:07:00;0.20;99.90
17621;DHT22;8929;51.008;6.804;2023-02-28T04:09:27;0.20;99.90
17621;DHT22;8929;51.008;6.804;2023-02-28T04:11:53;0.20;99.90
17621;DHT22;8929;51.008;6.804;2023-02-28T04:14:18;0.20;99.90
17621;DHT22;8929;51.008;6.804;2023-02-28T04:16:44;0.20;99.90
17621;DHT22;8929;51.008;6.804;2023-02-28T04:19:11;0.20;99.90
17621;DHT22;8929;51.008;6.804;2023-02-28T04:21:38;0.10;99.90
17621;DHT22;8929;51.008;6.804;2023-02-28T04:24:10;0.10;99.90
17621;DHT22;8929;51.008;6.804;2023-02-28T04:26:40;0.10;99.90
17621;DHT22;8929;51.008;6.804;2023-02-28T04:29:06;0.10;99.90
17621;DHT22;8929;51.008;6.804;2023-02-28T04:31:32;0.10;99.90
17621;DHT22;8929;51.008;6.804;2023-02-28T04:33:58;0.00;99.90
17621;DHT22;8929;51.008;6.804;2023-02-28T04:36:24;0.00;99.90
17621;DHT22;8929;51.008;6.804;2023-02-28T04:38:50;0.00;99.90
17621;DHT22;8929;51.008;6.804;2023-02-28T04:41:15;0.00;99.90
17621;DHT22;8929;51.008;6.804;2023-02-28T04:43:41;0.00;99.90
17621;DHT22;8929;51.008;6.804;2023-02-28T04:46:07;-0.10;99.90
17621;DHT22;8929;51.008;6.804;2023-02-28T04:48:34;-0.10;99.90
17621;DHT22;8929;51.008;6.804;2023-02-28T04:51:06;-0.10;99.90
17621;DHT22;8929;51.008;6.804;2023-02-28T04:53:32;-0.10;99.90
17621;DHT22;8929;51.008;6.804;2023-02-28T04:55:57;-0.10;99.90
17621;DHT22;8929;51.008;6.804;2023-02-28T04:58:23;-0.10;99.90
17621;DHT22;8929;51.008;6.804;2023-02-28T05:00:49;0.00;99.90
17621;DHT22;8929;51.008;6.804;2023-02-28T05:03:15;0.00;99.90
17621;DHT22;8929;51.008;6.804;2023-02-28T05:05:41;0.00;99.90
17621;DHT22;8929;51.008;6.804;2023-02-28T05:08:06;0.00;99.90
17621;DHT22;8929;51.008;6.804;2023-02-28T05:10:32;0.00;99.90
17621;DHT22;8929;51.008;6.804;2023-02-28T05:12:57;0.00;99.90
17621;DHT22;8929;51.008;6.804;2023-02-28T05:15:23;0.00;99.90
17621;DHT22;8929;51.008;6.804;2023-02-28T05:17:48;0.00;99.90
17621;DHT22;8929;51.008;6.804;2023-02-28T05:20:14;0.00;99.90
17621;DHT22;8929;51.008;6.804;2023-02-28T05:22:40;-0.10;99.90
17621;DHT22;8929;51.008;6.804;2023-02-28T05:25:06;-0.10;99.90
17621;DHT22;8929;51.008;6.804;2023-02-28T05:27:32;0.00;99.90
17621;DHT22;8929;51.008;6.804;2023-02-28T05:29:57;-0.10;99.90
17621;DHT22;8929;51.008;6.804;2023-02-28T05:32:24;-0.10;99.90
17621;DHT22;8929;51.008;6.804;2023-02-28T05:34:49;-0.20;99.90
17621;DHT22;8929;51.008;6.804;2023-02-28T05:37:15;-0.20;99.90
17621;DHT22;8929;51.008;6.804;2023-02-28T05:39:41;-0.20;99.90
17621;DHT22;8929;51.008;6.804;2023-02-28T05:42:06;-0.30;99.90
17621;DHT22;8929;51.008;6.804;2023-02-28T05:44:32;-0.30;99.90
17621;DHT22;8929;51.008;6.804;2023-02-28T05:46:57;-0.30;99.90
17621;DHT22;8929;51.008;6.804;2023-02-28T05:49:23;-0.30;99.90
17621;DHT22;8929;51.008;6.804;2023-02-28T05:51:48;-0.40;99.90
17621;DHT22;8929;51.008;6.804;2023-02-28T05:54:14;-0.40;99.90
17621;DHT22;8929;51.008;6.804;2023-02-28T05:56:39;-0.40;99.90
17621;DHT22;8929;51.008;6.804;2023-02-28T05:59:06;-0.40;99.90
17621;DHT22;8929;51.008;6.804;2023-02-28T06:01:35;-0.40;99.90
17621;DHT22;8929;51.008;6.804;2023-02-28T06:04:02;-0.40;99.90
17621;DHT22;8929;51.008;6.804;2023-02-28T06:06:28;-0.40;99.90
17621;DHT22;8929;51.008;6.804;2023-02-28T06:08:55;-0.40;99.90
17621;DHT22;8929;51.008;6.804;2023-02-28T06:11:20;-0.40;99.90
17621;DHT22;8929;51.008;6.804;2023-02-28T06:13:46;-0.30;99.90
17621;DHT22;8929;51.008;6.804;2023-02-28T06:16:12;-0.30;99.90
17621;DHT22;8929;51.008;6.804;2023-02-28T06:18:37;-0.30;99.90
17621;DHT22;8929;51.008;6.804;2023-02-28T06:21:03;-0.30;99.90
17621;DHT22;8929;51.008;6.804;2023-02-28T06:23:28;-0.30;99.90
17621;DHT22;8929;51.008;6.804;2023-02-28T06:25:54;-0.30;99.90
17621;DHT22;8929;51.008;6.804;2023-02-28T06:28:24;-0.20;99.90
17621;DHT22;8929;51.008;6.804;2023-02-28T06:30:49;-0.20;99.90
17621;DHT22;8929;51.008;6.804;2023-02-28T06:33:14;-0.20;99.90
17621;DHT22;8929;51.008;6.804;2023-02-28T06:35:42;-0.20;99.90
17621;DHT22;8929;51.008;6.804;2023-02-28T06:38:08;-0.10;99.90
17621;DHT22;8929;51.008;6.804;2023-02-28T06:40:33;-0.10;99.90
17621;DHT22;8929;51.008;6.804;2023-02-28T06:43:00;-0.10;99.90
17621;DHT22;8929;51.008;6.804;2023-02-28T06:45:26;0.00;99.90
17621;DHT22;8929;51.008;6.804;2023-02-28T06:47:51;0.00;99.90
17621;DHT22;8929;51.008;6.804;2023-02-28T06:50:17;0.00;99.90
17621;DHT22;8929;51.008;6.804;2023-02-28T06:52:45;0.00;99.90
17621;DHT22;8929;51.008;6.804;2023-02-28T06:55:11;0.10;99.90
17621;DHT22;8929;51.008;6.804;2023-02-28T06:57:36;0.10;99.90
17621;DHT22;8929;51.008;6.804;2023-02-28T07:00:04;0.20;99.90
17621;DHT22;8929;51.008;6.804;2023-02-28T07:02:30;0.20;99.90
17621;DHT22;8929;51.008;6.804;2023-02-28T07:04:56;0.30;99.90
17621;DHT22;8929;51.008;6.804;2023-02-28T07:07:22;0.40;99.90
17621;DHT22;8929;51.008;6.804;2023-02-28T07:09:47;0.40;99.90
17621;DHT22;8929;51.008;6.804;2023-02-28T07:12:13;0.50;99.90
17621;DHT22;8929;51.008;6.804;2023-02-28T07:14:38;0.50;99.90
17621;DHT22;8929;51.008;6.804;2023-02-28T07:17:04;0.60;99.90
17621;DHT22;8929;51.008;6.804;2023-02-28T07:19:31;0.60;99.90
17621;DHT22;8929;51.008;6.804;2023-02-28T07:21:57;0.70;99.90
17621;DHT22;8929;51.008;6.804;2023-02-28T07:24:22;0.70;99.90
17621;DHT22;8929;51.008;6.804;2023-02-28T07:26:51;0.80;99.90
17621;DHT22;8929;51.008;6.804;2023-02-28T07:29:16;0.80;99.90
17621;DHT22;8929;51.008;6.804;2023-02-28T07:31:41;0.90;99.90
17621;DHT22;8929;51.008;6.804;2023-02-28T07:34:07;0.90;99.90
17621;DHT22;8929;51.008;6.804;2023-02-28T07:36:32;1.00;99.90
17621;DHT22;8929;51.008;6.804;2023-02-28T07:38:58;1.10;99.90
17621;DHT22;8929;51.008;6.804;2023-02-28T07:41:23;1.10;99.90
17621;DHT22;8929;51.008;6.804;2023-02-28T07:43:55;1.20;99.90
17621;DHT22;8929;51.008;6.804;2023-02-28T07:46:22;1.20;99.90
17621;DHT22;8929;51.008;6.804;2023-02-28T07:48:47;1.30;99.90
17621;DHT22;8929;51.008;6.804;2023-02-28T07:51:13;1.40;99.90
17621;DHT22;8929;51.008;6.804;2023-02-28T07:53:39;1.50;99.90
17621;DHT22;8929;51.008;6.804;2023-02-28T07:56:04;1.50;99.90
17621;DHT22;8929;51.008;6.804;2023-02-28T07:58:30;1.70;99.90
17621;DHT22;8929;51.008;6.804;2023-02-28T08:00:56;1.70;99.90
17621;DHT22;8929;51.008;6.804;2023-02-28T08:03:22;1.80;99.90
17621;DHT22;8929;51.008;6.804;2023-02-28T08:05:48;1.90;99.90
17621;DHT22;8929;51.008;6.804;2023-02-28T08:08:14;2.00;99.90
17621;DHT22;8929;51.008;6.804;2023-02-28T08:10:40;2.00;99.90
17621;DHT22;8929;51.008;6.804;2023-02-28T08:13:05;2.20;99.90
17621;DHT22;8929;51.008;6.804;2023-02-28T08:15:31;2.30;99.90
17621;DHT22;8929;51.008;6.804;2023-02-28T08:17:57;2.40;99.90
17621;DHT22;8929;51.008;6.804;2023-02-28T08:20:23;2.50;99.90
17621;DHT22;8929;51.008;6.804;2023-02-28T08:22:48;2.60;99.90
17621;DHT22;8929;51.008;6.804;2023-02-28T08:25:14;2.70;99.90
17621;DHT22;8929;51.008;6.804;2023-02-28T08:27:40;2.80;99.90
17621;DHT22;8929;51.008;6.804;2023-02-28T08:30:05;2.90;99.90
17621;DHT22;8929;51.008;6.804;2023-02-28T08:32:32;3.00;99.90
17621;DHT22;8929;51.008;6.804;2023-02-28T08:34:57;3.10;99.90
17621;DHT22;8929;51.008;6.804;2023-02-28T08:37:23;3.20;99.90
17621;DHT22;8929;51.008;6.804;2023-02-28T08:39:49;3.30;99.90
17621;DHT22;8929;51.008;6.804;2023-02-28T08:42:14;3.40;99.90
17621;DHT22;8929;51.008;6.804;2023-02-28T08:44:40;3.50;99.90
17621;DHT22;8929;51.008;6.804;2023-02-28T08:47:05;3.60;99.90
17621;DHT22;8929;51.008;6.804;2023-02-28T08:49:31;3.60;99.90
17621;DHT22;8929;51.008;6.804;2023-02-28T08:51:57;3.60;99.90
17621;DHT22;8929;51.008;6.804;2023-02-28T08:54:23;3.70;99.90
17621;DHT22;8929;51.008;6.804;2023-02-28T08:56:48;3.80;98.50
17621;DHT22;8929;51.008;6.804;2023-02-28T08:59:14;3.80;98.20
17621;DHT22;8929;51.008;6.804;2023-02-28T09:01:39;3.90;95.80
17621;DHT22;8929;51.008;6.804;2023-02-28T09:04:06;4.00;94.00
17621;DHT22;8929;51.008;6.804;2023-02-28T09:06:33;4.00;93.20
17621;DHT22;8929;51.008;6.804;2023-02-28T09:08:59;4.10;91.10
17621;DHT22;8929;51.008;6.804;2023-02-28T09:11:26;4.20;90.00
17621;DHT22;8929;51.008;6.804;2023-02-28T09:13:52;4.30;89.40
17621;DHT22;8929;51.008;6.804;2023-02-28T09:16:17;4.40;86.30
17621;DHT22;8929;51.008;6.804;2023-02-28T09:18:43;4.40;85.80
17621;DHT22;8929;51.008;6.804;2023-02-28T09:21:10;4.50;86.10
17621;DHT22;8929;51.008;6.804;2023-02-28T09:23:37;4.60;84.00
17621;DHT22;8929;51.008;6.804;2023-02-28T09:26:03;4.60;84.30
17621;DHT22;8929;51.008;6.804;2023-02-28T09:28:29;4.60;82.40
17621;DHT22;8929;51.008;6.804;2023-02-28T09:30:54;4.70;82.00
17621;DHT22;8929;51.008;6.804;2023-02-28T09:33:20;4.70;82.00
17621;DHT22;8929;51.008;6.804;2023-02-28T09:35:49;4.80;81.90
17621;DHT22;8929;51.008;6.804;2023-02-28T09:38:15;4.90;84.20
17621;DHT22;8929;51.008;6.804;2023-02-28T09:40:49;5.00;82.70
17621;DHT22;8929;51.008;6.804;2023-02-28T09:43:15;5.00;85.20
17621;DHT22;8929;51.008;6.804;2023-02-28T09:45:44;5.10;82.70
17621;DHT22;8929;51.008;6.804;2023-02-28T09:48:12;5.10;78.90
17621;DHT22;8929;51.008;6.804;2023-02-28T09:50:41;5.20;79.90
17621;DHT22;8929;51.008;6.804;2023-02-28T09:55:59;5.40;83.10
17621;DHT22;8929;51.008;6.804;2023-02-28T09:58:44;5.40;81.70
17621;DHT22;8929;51.008;6.804;2023-02-28T10:01:21;5.50;82.20
17621;DHT22;8929;51.008;6.804;2023-02-28T10:03:51;5.50;81.20
17621;DHT22;8929;51.008;6.804;2023-02-28T10:06:21;5.50;81.70
17621;DHT22;8929;51.008;6.804;2023-02-28T10:09:02;5.50;83.10
17621;DHT22;8929;51.008;6.804;2023-02-28T10:11:28;5.60;82.80
17621;DHT22;8929;51.008;6.804;2023-02-28T10:16:36;5.80;81.00
17621;DHT22;8929;51.008;6.804;2023-02-28T10:19:11;5.90;80.70
17621;DHT22;8929;51.008;6.804;2023-02-28T10:21:44;6.10;79.80
17621;DHT22;8929;51.008;6.804;2023-02-28T10:24:19;6.10;79.60
17621;DHT22;8929;51.008;6.804;2023-02-28T10:26:45;6.20;78.50
17621;DHT22;8929;51.008;6.804;2023-02-28T10:29:12;6.40;80.00
17621;DHT22;8929;51.008;6.804;2023-02-28T10:31:38;6.50;77.80
17621;DHT22;8929;51.008;6.804;2023-02-28T10:34:04;6.70;79.50
17621;DHT22;8929;51.008;6.804;2023-02-28T10:36:31;6.70;76.10
17621;DHT22;8929;51.008;6.804;2023-02-28T10:38:57;7.30;76.40
17621;DHT22;8929;51.008;6.804;2023-02-28T10:43:51;12.10;65.00
17621;DHT22;8929;51.008;6.804;2023-02-28T10:46:18;14.90;54.80
17621;DHT22;8929;51.008;6.804;2023-02-28T10:49:07;17.20;99.90
17621;DHT22;8929;51.008;6.804;2023-02-28T10:51:38;18.70;99.90
17621;DHT22;8929;51.008;6.804;2023-02-28T10:54:04;20.30;99.90
17621;DHT22;8929;51.008;6.804;2023-02-28T10:56:30;21.50;99.90
17621;DHT22;8929;51.008;6.804;2023-02-28T11:01:35;23.50;99.90
17621;DHT22;8929;51.008;6.804;2023-02-28T11:04:01;24.20;99.90
17621;DHT22;8929;51.008;6.804;2023-02-28T11:06:33;24.50;99.90
17621;DHT22;8929;51.008;6.804;2023-02-28T11:09:00;23.70;99.90
17621;DHT22;8929;51.008;6.804;2023-02-28T11:11:26;24.30;99.90
17621;DHT22;8929;51.008;6.804;2023-02-28T11:13:54;25.60;99.90
17621;DHT22;8929;51.008;6.804;2023-02-28T11:16:21;25.60;99.90
17621;DHT22;8929;51.008;6.804;2023-02-28T11:18:51;26.90;99.90
17621;DHT22;8929;51.008;6.804;2023-02-28T11:21:38;27.50;99.90
17621;DHT22;8929;51.008;6.804;2023-02-28T11:24:19;27.60;99.90
17621;DHT22;8929;51.008;6.804;2023-02-28T11:26:47;28.00;99.90
17621;DHT22;8929;51.008;6.804;2023-02-28T11:29:18;27.40;99.90
17621;DHT22;8929;51.008;6.804;2023-02-28T11:34:29;27.90;99.90
17621;DHT22;8929;51.008;6.804;2023-02-28T11:36:55;27.60;99.90
17621;DHT22;8929;51.008;6.804;2023-02-28T11:39:22;27.00;99.90
17621;DHT22;8929;51.008;6.804;2023-02-28T11:47:34;28.00;99.90
17621;DHT22;8929;51.008;6.804;2023-02-28T11:59:59;26.20;99.90
17621;DHT22;8929;51.008;6.804;2023-02-28T12:02:34;25.10;99.90
17621;DHT22;8929;51.008;6.804;2023-02-28T12:10:26;23.70;99.90
17621;DHT22;8929;51.008;6.804;2023-02-28T12:27:53;22.40;99.90
17621;DHT22;8929;51.008;6.804;2023-02-28T12:30:24;23.10;99.90
17621;DHT22;8929;51.008;6.804;2023-02-28T12:33:07;24.20;99.90
17621;DHT22;8929;51.008;6.804;2023-02-28T12:35:34;24.50;99.90
17621;DHT22;8929;51.008;6.804;2023-02-28T12:38:03;23.40;99.90
17621;DHT22;8929;51.008;6.804;2023-02-28T12:40:43;21.30;99.90
17621;DHT22;8929;51.008;6.804;2023-02-28T12:43:09;19.40;99.90
17621;DHT22;8929;51.008;6.804;2023-02-28T12:45:40;19.00;99.90
17621;DHT22;8929;51.008;6.804;2023-02-28T12:48:08;20.00;99.90
17621;DHT22;8929;51.008;6.804;2023-02-28T12:50:35;20.40;99.90
17621;DHT22;8929;51.008;6.804;2023-02-28T12:53:14;21.70;99.90
17621;DHT22;8929;51.008;6.804;2023-02-28T12:55:44;23.20;99.90
17621;DHT22;8929;51.008;6.804;2023-02-28T13:05:55;21.50;99.90
17621;DHT22;8929;51.008;6.804;2023-02-28T13:11:10;19.40;99.90
17621;DHT22;8929;51.008;6.804;2023-02-28T13:13:48;19.90;99.90
17621;DHT22;8929;51.008;6.804;2023-02-28T13:16:22;21.00;99.90
17621;DHT22;8929;51.008;6.804;2023-02-28T13:18:47;21.70;99.90
17621;DHT22;8929;51.008;6.804;2023-02-28T13:21:23;21.70;99.90
17621;DHT22;8929;51.008;6.804;2023-02-28T13:27:10;21.70;99.90
17621;DHT22;8929;51.008;6.804;2023-02-28T13:34:27;21.40;99.90
17621;DHT22;8929;51.008;6.804;2023-02-28T13:37:25;21.10;99.90
17621;DHT22;8929;51.008;6.804;2023-02-28T13:47:28;19.80;99.90
17621;DHT22;8929;51.008;6.804;2023-02-28T13:49:53;19.60;99.90
17621;DHT22;8929;51.008;6.804;2023-02-28T13:52:22;18.60;99.90
17621;DHT22;8929;51.008;6.804;2023-02-28T13:57:21;18.40;99.90
17621;DHT22;8929;51.008;6.804;2023-02-28T14:18:13;13.50;99.90
17621;DHT22;8929;51.008;6.804;2023-02-28T14:20:39;14.80;99.90
17621;DHT22;8929;51.008;6.804;2023-02-28T14:25:37;19.10;99.90
17621;DHT22;8929;51.008;6.804;2023-02-28T14:28:19;20.30;99.90
17621;DHT22;8929;51.008;6.804;2023-02-28T14:41:04;23.60;99.90
17621;DHT22;8929;51.008;6.804;2023-02-28T14:43:36;24.10;99.90
17621;DHT22;8929;51.008;6.804;2023-02-28T14:46:03;25.00;99.90
17621;DHT22;8929;51.008;6.804;2023-02-28T14:48:29;25.50;99.90
17621;DHT22;8929;51.008;6.804;2023-02-28T14:50:56;25.90;99.90
17621;DHT22;8929;51.008;6.804;2023-02-28T14:53:23;25.70;99.90
17621;DHT22;8929;51.008;6.804;2023-02-28T14:55:50;25.90;99.90
17621;DHT22;8929;51.008;6.804;2023-02-28T14:58:21;26.00;99.90
17621;DHT22;8929;51.008;6.804;2023-02-28T15:00:47;26.00;99.90
17621;DHT22;8929;51.008;6.804;2023-02-28T15:05:52;25.80;99.90
17621;DHT22;8929;51.008;6.804;2023-02-28T15:08:18;24.90;99.90
17621;DHT22;8929;51.008;6.804;2023-02-28T15:13:16;24.80;99.90
17621;DHT22;8929;51.008;6.804;2023-02-28T15:18:10;24.80;99.90
17621;DHT22;8929;51.008;6.804;2023-02-28T15:20:39;24.30;99.90
17621;DHT22;8929;51.008;6.804;2023-02-28T15:23:06;23.80;99.90
17621;DHT22;8929;51.008;6.804;2023-02-28T15:25:31;22.30;99.90
17621;DHT22;8929;51.008;6.804;2023-02-28T15:27:57;20.50;99.90
17621;DHT22;8929;51.008;6.804;2023-02-28T15:30:32;18.70;99.90
17621;DHT22;8929;51.008;6.804;2023-02-28T15:33:06;17.10;99.90
17621;DHT22;8929;51.008;6.804;2023-02-28T15:35:42;15.70;99.90
17621;DHT22;8929;51.008;6.804;2023-02-28T15:38:13;14.80;99.90
17621;DHT22;8929;51.008;6.804;2023-02-28T15:40:40;13.90;99.90
17621;DHT22;8929;51.008;6.804;2023-02-28T15:43:12;13.10;99.90
17621;DHT22;8929;51.008;6.804;2023-02-28T15:48:14;12.10;99.90
17621;DHT22;8929;51.008;6.804;2023-02-28T15:50:41;11.70;99.90
17621;DHT22;8929;51.008;6.804;2023-02-28T15:53:12;11.30;99.90
17621;DHT22;8929;51.008;6.804;2023-02-28T15:55:38;11.10;99.90
17621;DHT22;8929;51.008;6.804;2023-02-28T15:58:03;10.80;99.90
17621;DHT22;8929;51.008;6.804;2023-02-28T16:00:30;10.60;99.90
17621;DHT22;8929;51.008;6.804;2023-02-28T16:02:58;10.30;99.90
17621;DHT22;8929;51.008;6.804;2023-02-28T16:05:24;10.20;99.90
17621;DHT22;8929;51.008;6.804;2023-02-28T16:07:56;10.10;99.90
17621;DHT22;8929;51.008;6.804;2023-02-28T16:10:22;10.00;99.90
17621;DHT22;8929;51.008;6.804;2023-02-28T16:12:52;9.80;99.90
17621;DHT22;8929;51.008;6.804;2023-02-28T16:15:19;9.70;99.90
17621;DHT22;8929;51.008;6.804;2023-02-28T16:17:46;9.60;99.90
17621;DHT22;8929;51.008;6.804;2023-02-28T16:20:12;9.60;99.90
17621;DHT22;8929;51.008;6.804;2023-02-28T16:22:38;9.50;99.90
17621;DHT22;8929;51.008;6.804;2023-02-28T16:25:04;9.50;99.90
17621;DHT22;8929;51.008;6.804;2023-02-28T16:27:35;9.30;99.90
17621;DHT22;8929;51.008;6.804;2023-02-28T16:30:01;9.30;99.90
17621;DHT22;8929;51.008;6.804;2023-02-28T16:32:27;9.20;99.90
17621;DHT22;8929;51.008;6.804;2023-02-28T16:34:52;9.00;99.90
17621;DHT22;8929;51.008;6.804;2023-02-28T16:37:18;8.90;99.90
17621;DHT22;8929;51.008;6.804;2023-02-28T16:39:44;8.80;99.90
17621;DHT22;8929;51.008;6.804;2023-02-28T16:42:18;8.70;99.90
17621;DHT22;8929;51.008;6.804;2023-02-28T16:44:46;8.60;99.90
17621;DHT22;8929;51.008;6.804;2023-02-28T16:47:12;8.50;99.90
17621;DHT22;8929;51.008;6.804;2023-02-28T16:49:38;8.30;99.90
17621;DHT22;8929;51.008;6.804;2023-02-28T16:52:03;8.20;99.90
17621;DHT22;8929;51.008;6.804;2023-02-28T16:54:29;8.10;99.90
17621;DHT22;8929;51.008;6.804;2023-02-28T16:56:55;8.00;99.90
17621;DHT22;8929;51.008;6.804;2023-02-28T16:59:23;7.90;99.90
17621;DHT22;8929;51.008;6.804;2023-02-28T17:01:50;7.70;99.90
17621;DHT22;8929;51.008;6.804;2023-02-28T17:04:15;7.60;99.90
17621;DHT22;8929;51.008;6.804;2023-02-28T17:06:41;7.50;99.90
17621;DHT22;8929;51.008;6.804;2023-02-28T17:09:08;7.30;99.90
17621;DHT22;8929;51.008;6.804;2023-02-28T17:11:40;7.20;99.90
17621;DHT22;8929;51.008;6.804;2023-02-28T17:14:05;7.00;99.90
17621;DHT22;8929;51.008;6.804;2023-02-28T17:16:34;7.00;99.90
17621;DHT22;8929;51.008;6.804;2023-02-28T17:19:01;6.80;99.90
17621;DHT22;8929;51.008;6.804;2023-02-28T17:21:27;6.60;99.90
17621;DHT22;8929;51.008;6.804;2023-02-28T17:23:53;6.60;99.90
17621;DHT22;8929;51.008;6.804;2023-02-28T17:26:19;6.50;99.90
17621;DHT22;8929;51.008;6.804;2023-02-28T17:28:48;6.40;99.90
17621;DHT22;8929;51.008;6.804;2023-02-28T17:31:14;6.30;99.90
17621;DHT22;8929;51.008;6.804;2023-02-28T17:33:40;6.30;99.90
17621;DHT22;8929;51.008;6.804;2023-02-28T17:36:06;6.20;99.90
17621;DHT22;8929;51.008;6.804;2023-02-28T17:38:32;6.10;99.90
17621;DHT22;8929;51.008;6.804;2023-02-28T17:40:57;6.10;99.90
17621;DHT22;8929;51.008;6.804;2023-02-28T17:43:26;6.00;99.90
17621;DHT22;8929;51.008;6.804;2023-02-28T17:45:52;6.00;99.90
17621;DHT22;8929;51.008;6.804;2023-02-28T17:48:17;5.90;99.90
17621;DHT22;8929;51.008;6.804;2023-02-28T17:50:43;5.80;99.90
17621;DHT22;8929;51.008;6.804;2023-02-28T17:53:08;5.80;99.90
17621;DHT22;8929;51.008;6.804;2023-02-28T17:55:34;5.70;99.90
17621;DHT22;8929;51.008;6.804;2023-02-28T17:58:00;5.70;99.90
17621;DHT22;8929;51.008;6.804;2023-02-28T18:00:25;5.60;99.90
17621;DHT22;8929;51.008;6.804;2023-02-28T18:02:51;5.50;99.90
17621;DHT22;8929;51.008;6.804;2023-02-28T18:05:16;5.50;99.90
17621;DHT22;8929;51.008;6.804;2023-02-28T18:07:42;5.40;99.90
17621;DHT22;8929;51.008;6.804;2023-02-28T18:10:16;5.40;99.90
17621;DHT22;8929;51.008;6.804;2023-02-28T18:12:45;5.40;99.90
17621;DHT22;8929;51.008;6.804;2023-02-28T18:15:10;5.30;99.90
17621;DHT22;8929;51.008;6.804;2023-02-28T18:17:36;5.30;99.90
17621;DHT22;8929;51.008;6.804;2023-02-28T18:20:01;5.20;99.90
17621;DHT22;8929;51.008;6.804;2023-02-28T18:22:27;5.20;99.90
17621;DHT22;8929;51.008;6.804;2023-02-28T18:24:52;5.10;99.90
17621;DHT22;8929;51.008;6.804;2023-02-28T18:27:17;5.10;99.90
17621;DHT22;8929;51.008;6.804;2023-02-28T18:29:43;5.10;99.90